createdAt,value
2019-02-24T00:00:29.002Z,17.90
2019-02-24T00:03:18.534Z,18.80
2019-02-24T00:06:00.135Z,17.00
2019-02-24T00:08:42.134Z,17.70
2019-02-24T00:11:23.244Z,18.32
2019-02-24T00:14:08.928Z,19.35
2019-02-24T00:16:52.210Z,15.60
2019-02-24T00:19:53.463Z,15.25
2019-02-24T00:22:35.583Z,14.47
2019-02-24T00:25:16.426Z,13.45
2019-02-24T00:27:57.291Z,13.83
2019-02-24T00:30:38.879Z,15.40
2019-02-24T00:33:19.043Z,12.80
2019-02-24T00:35:59.606Z,12.73
2019-02-24T00:38:40.897Z,12.80
2019-02-24T00:41:24.412Z,12.95
2019-02-24T00:44:07.062Z,11.83
2019-02-24T00:46:48.106Z,12.07
2019-02-24T00:49:28.330Z,13.43
2019-02-24T00:52:09.174Z,12.60
2019-02-24T00:54:54.177Z,11.60
2019-02-24T00:57:34.159Z,11.20
2019-02-24T01:00:14.598Z,10.95
2019-02-24T01:02:55.405Z,11.50
2019-02-24T01:05:35.396Z,11.50
2019-02-24T01:08:15.332Z,10.80
2019-02-24T01:10:55.409Z,10.78
2019-02-24T01:13:37.100Z,10.55
2019-02-24T01:16:21.065Z,10.78
2019-02-24T01:19:00.908Z,11.05
2019-02-24T01:21:42.963Z,10.40
2019-02-24T01:24:23.015Z,11.12
2019-02-24T01:27:03.932Z,10.72
2019-02-24T01:29:44.802Z,10.72
2019-02-24T01:32:29.996Z,10.20
2019-02-24T01:35:12.898Z,11.20
2019-02-24T01:37:53.613Z,10.68
2019-02-24T01:40:33.302Z,10.32
2019-02-24T01:43:14.756Z,9.90
2019-02-24T01:45:54.639Z,9.75
2019-02-24T01:48:34.276Z,9.78
2019-02-24T01:51:15.246Z,10.88
2019-02-24T01:53:54.897Z,10.65
2019-02-24T01:56:34.255Z,10.70
2019-02-24T01:59:13.481Z,10.68
2019-02-24T02:01:52.773Z,9.90
2019-02-24T02:04:32.800Z,10.48
2019-02-24T02:07:13.464Z,9.80
2019-02-24T02:09:53.796Z,10.60
2019-02-24T02:12:33.189Z,10.08
2019-02-24T02:15:12.638Z,10.50
2019-02-24T02:17:51.983Z,10.95
2019-02-24T02:20:32.719Z,10.45
2019-02-24T02:23:14.645Z,10.63
2019-02-24T02:25:54.280Z,10.20
2019-02-24T02:28:34.610Z,10.25
2019-02-24T02:31:13.919Z,13.08
2019-02-24T02:33:54.963Z,11.63
2019-02-24T02:36:35.051Z,12.28
2019-02-24T02:39:15.299Z,11.03
2019-02-24T02:41:55.401Z,11.50
2019-02-24T02:44:38.355Z,12.20
2019-02-24T02:47:18.380Z,11.83
2019-02-24T02:50:12.043Z,11.80
2019-02-24T02:52:51.524Z,11.60
2019-02-24T02:55:34.835Z,11.75
2019-02-24T02:58:14.653Z,10.80
2019-02-24T03:00:54.901Z,11.78
2019-02-24T03:03:35.359Z,11.45
2019-02-24T03:06:24.428Z,12.90
2019-02-24T03:09:03.922Z,12.75
2019-02-24T03:11:48.455Z,12.73
2019-02-24T03:14:29.666Z,11.60
2019-02-24T03:17:09.828Z,12.33
2019-02-24T03:19:49.910Z,11.90
2019-02-24T03:22:32.892Z,10.65
2019-02-24T03:25:16.584Z,10.55
2019-02-24T03:27:56.087Z,11.53
2019-02-24T03:30:36.864Z,11.28
2019-02-24T03:33:25.682Z,11.63
2019-02-24T03:36:05.447Z,11.05
2019-02-24T03:38:47.086Z,12.40
2019-02-24T03:41:26.664Z,11.28
2019-02-24T03:44:08.377Z,11.90
2019-02-24T03:49:26.443Z,11.78
2019-02-24T03:52:10.298Z,12.88
2019-02-24T03:54:58.930Z,12.15
2019-02-24T03:57:49.658Z,10.85
2019-02-24T04:00:34.642Z,12.10
2019-02-24T04:03:18.860Z,11.45
2019-02-24T04:06:05.332Z,11.08
2019-02-24T04:08:45.716Z,10.95
2019-02-24T04:11:25.124Z,10.85
2019-02-24T04:14:08.127Z,10.53
2019-02-24T04:16:51.121Z,10.98
2019-02-24T04:19:31.014Z,10.38
2019-02-24T04:22:10.948Z,11.00
2019-02-24T04:24:52.062Z,11.12
2019-02-24T04:27:33.350Z,10.18
2019-02-24T04:30:12.885Z,10.48
2019-02-24T04:32:53.552Z,11.45
2019-02-24T04:35:32.625Z,11.95
2019-02-24T04:38:11.947Z,11.12
2019-02-24T04:40:53.379Z,11.45
2019-02-24T04:43:34.994Z,12.03
2019-02-24T04:46:15.420Z,11.43
2019-02-24T04:49:00.496Z,11.05
2019-02-24T04:51:46.093Z,11.25
2019-02-24T04:54:26.304Z,11.45
2019-02-24T04:57:09.427Z,11.83
2019-02-24T04:59:50.306Z,10.80
2019-02-24T05:02:30.898Z,11.08
2019-02-24T05:05:10.377Z,11.75
2019-02-24T05:07:50.867Z,11.08
2019-02-24T05:10:31.090Z,10.45
2019-02-24T05:13:20.579Z,11.30
2019-02-24T05:16:01.800Z,10.98
2019-02-24T05:18:43.334Z,12.75
2019-02-24T05:21:23.579Z,10.13
2019-02-24T05:24:05.166Z,11.05
2019-02-24T05:26:46.214Z,10.82
2019-02-24T05:29:26.133Z,11.12
2019-02-24T05:32:06.748Z,10.65
2019-02-24T05:34:49.903Z,10.98
2019-02-24T05:37:30.449Z,10.50
2019-02-24T05:40:09.611Z,11.00
2019-02-24T05:42:54.290Z,10.93
2019-02-24T05:45:33.838Z,10.93
2019-02-24T05:48:22.158Z,11.22
2019-02-24T05:51:02.667Z,11.57
2019-02-24T05:53:43.674Z,13.93
2019-02-24T05:56:23.475Z,12.13
2019-02-24T05:59:03.020Z,11.43
2019-02-24T06:01:47.116Z,11.75
2019-02-24T06:04:26.642Z,12.10
2019-02-24T06:07:09.044Z,12.43
2019-02-24T06:09:50.665Z,12.47
2019-02-24T06:15:12.544Z,12.85
2019-02-24T06:17:53.741Z,11.12
2019-02-24T06:20:38.470Z,10.43
2019-02-24T06:23:17.932Z,11.35
2019-02-24T06:25:58.525Z,11.60
2019-02-24T06:28:39.053Z,11.10
2019-02-24T06:31:21.386Z,11.93
2019-02-24T06:34:09.596Z,9.85
2019-02-24T06:36:49.606Z,9.85
2019-02-24T06:39:30.127Z,10.45
2019-02-24T06:42:10.515Z,10.40
2019-02-24T06:44:53.024Z,10.28
2019-02-24T06:47:34.580Z,11.33
2019-02-24T06:50:16.258Z,10.95
2019-02-24T06:52:56.943Z,9.63
2019-02-24T06:55:36.450Z,10.58
2019-02-24T06:58:18.409Z,10.35
2019-02-24T07:00:57.877Z,10.68
2019-02-24T07:03:40.609Z,11.35
2019-02-24T07:06:20.818Z,11.35
2019-02-24T07:09:01.246Z,12.23
2019-02-24T07:11:41.754Z,12.47
2019-02-24T07:14:22.174Z,11.97
2019-02-24T07:17:05.495Z,18.13
2019-02-24T07:19:49.109Z,10.72
2019-02-24T07:22:29.537Z,10.43
2019-02-24T07:25:09.170Z,10.72
2019-02-24T07:27:49.325Z,11.18
2019-02-24T07:30:31.025Z,10.60
2019-02-24T07:33:10.386Z,10.80
2019-02-24T07:35:50.817Z,9.55
2019-02-24T07:38:31.081Z,10.20
2019-02-24T07:41:15.552Z,10.38
2019-02-24T07:44:01.236Z,10.55
2019-02-24T07:46:41.198Z,10.70
2019-02-24T07:49:21.535Z,11.12
2019-02-24T07:52:03.732Z,11.22
2019-02-24T07:54:45.519Z,11.85
2019-02-24T08:00:01.516Z,11.65
2019-02-24T08:02:44.706Z,12.45
2019-02-24T08:05:25.650Z,11.88
2019-02-24T08:08:06.537Z,10.68
2019-02-24T08:10:45.692Z,11.90
2019-02-24T08:13:24.998Z,11.12
2019-02-24T08:16:04.948Z,12.03
2019-02-24T08:18:49.469Z,10.10
2019-02-24T08:21:26.252Z,10.23
2019-02-24T08:24:05.779Z,11.12
2019-02-24T08:26:44.834Z,10.58
2019-02-24T08:29:24.525Z,10.65
2019-02-24T08:32:04.482Z,11.38
2019-02-24T08:34:44.718Z,11.38
2019-02-24T08:37:24.021Z,12.00
2019-02-24T08:40:06.951Z,10.88
2019-02-24T08:42:48.230Z,10.03
2019-02-24T08:45:28.743Z,11.25
2019-02-24T08:48:10.550Z,10.63
2019-02-24T08:50:50.525Z,10.20
2019-02-24T08:53:32.672Z,10.38
2019-02-24T08:58:48.566Z,10.20
2019-02-24T09:01:29.233Z,10.72
2019-02-24T09:04:12.322Z,10.63
2019-02-24T09:06:54.016Z,10.10
2019-02-24T09:09:33.037Z,10.95
2019-02-24T09:12:14.975Z,11.05
2019-02-24T09:14:54.478Z,10.40
2019-02-24T09:17:33.590Z,10.18
2019-02-24T09:20:13.055Z,10.70
2019-02-24T09:22:52.291Z,11.43
2019-02-24T09:25:31.809Z,11.48
2019-02-24T09:28:11.412Z,10.90
2019-02-24T09:31:00.945Z,10.53
2019-02-24T09:33:43.797Z,10.35
2019-02-24T09:36:25.253Z,10.80
2019-02-24T09:39:05.459Z,10.23
2019-02-24T09:41:46.277Z,10.05
2019-02-24T09:44:25.797Z,10.43
2019-02-24T09:47:06.336Z,10.05
2019-02-24T09:49:45.886Z,10.48
2019-02-24T09:52:27.829Z,10.32
2019-02-24T09:55:08.627Z,10.70
2019-02-24T09:57:54.948Z,11.15
2019-02-24T10:00:36.798Z,10.05
2019-02-24T10:03:16.557Z,9.78
2019-02-24T10:05:55.742Z,10.00
2019-02-24T10:08:35.060Z,10.10
2019-02-24T10:11:15.395Z,10.72
2019-02-24T10:13:54.566Z,10.25
2019-02-24T10:16:34.422Z,10.48
2019-02-24T10:19:13.394Z,10.28
2019-02-24T10:21:57.452Z,9.78
2019-02-24T10:27:18.492Z,10.15
2019-02-24T10:30:00.157Z,10.35
2019-02-24T10:32:40.567Z,11.60
2019-02-24T10:35:20.629Z,11.00
2019-02-24T10:38:01.104Z,11.35
2019-02-24T10:40:40.188Z,10.15
2019-02-24T10:43:21.399Z,10.68
2019-02-24T10:46:02.347Z,10.60
2019-02-24T10:48:42.699Z,10.57
2019-02-24T10:51:25.421Z,10.13
2019-02-24T10:54:04.915Z,10.85
2019-02-24T10:56:44.446Z,10.15
2019-02-24T10:59:24.782Z,10.38
2019-02-24T11:02:04.310Z,11.40
2019-02-24T11:04:43.700Z,11.68
2019-02-24T11:07:23.163Z,11.00
2019-02-24T11:10:03.966Z,11.90
2019-02-24T11:12:45.043Z,10.65
2019-02-24T11:15:24.480Z,12.05
2019-02-24T11:18:04.805Z,11.45
2019-02-24T11:20:46.685Z,11.40
2019-02-24T11:23:29.289Z,11.28
2019-02-24T11:26:11.146Z,11.40
2019-02-24T11:28:51.699Z,11.10
2019-02-24T11:31:38.111Z,11.90
2019-02-24T11:34:12.940Z,11.18
2019-02-24T11:36:52.089Z,12.15
2019-02-24T11:39:32.181Z,12.10
2019-02-24T11:42:13.138Z,11.90
2019-02-24T11:44:52.517Z,11.30
2019-02-24T11:47:35.023Z,11.83
2019-02-24T11:50:14.787Z,11.80
2019-02-24T11:52:56.035Z,11.85
2019-02-24T11:55:37.227Z,11.68
2019-02-24T11:58:19.686Z,11.68
2019-02-24T12:00:59.226Z,13.25
2019-02-24T12:03:40.127Z,12.60
2019-02-24T12:06:19.760Z,11.83
2019-02-24T12:09:05.183Z,11.40
2019-02-24T12:11:49.573Z,11.97
2019-02-24T12:14:34.489Z,12.23
2019-02-24T12:17:19.858Z,11.57
2019-02-24T12:19:59.917Z,11.43
2019-02-24T12:22:41.742Z,12.05
2019-02-24T12:25:20.487Z,12.25
2019-02-24T12:27:59.685Z,11.12
2019-02-24T12:30:43.653Z,11.33
2019-02-24T12:33:48.183Z,11.53
2019-02-24T12:36:49.965Z,12.47
2019-02-24T12:39:31.726Z,12.00
2019-02-24T12:42:11.122Z,11.60
2019-02-24T12:44:51.271Z,11.45
2019-02-24T12:47:35.267Z,11.10
2019-02-24T12:50:45.492Z,10.95
2019-02-24T12:53:24.831Z,11.78
2019-02-24T12:56:05.284Z,10.50
2019-02-24T12:58:49.429Z,11.40
2019-02-24T13:01:28.879Z,11.85
2019-02-24T13:04:09.216Z,10.95
2019-02-24T13:06:49.516Z,10.30
2019-02-24T13:09:29.319Z,10.85
2019-02-24T13:12:19.919Z,10.48
2019-02-24T13:15:03.293Z,10.78
2019-02-24T13:17:45.837Z,11.57
2019-02-24T13:20:29.194Z,11.28
2019-02-24T13:23:10.481Z,11.18
2019-02-24T13:25:55.663Z,10.75
2019-02-24T13:28:37.310Z,11.12
2019-02-24T13:31:22.067Z,11.65
2019-02-24T13:34:01.177Z,12.98
2019-02-24T13:36:41.499Z,11.05
2019-02-24T13:39:21.436Z,11.70
2019-02-24T13:42:06.307Z,12.82
2019-02-24T13:44:47.309Z,14.43
2019-02-24T13:47:27.720Z,13.50
2019-02-24T13:50:06.839Z,12.30
2019-02-24T13:52:47.169Z,12.88
2019-02-24T13:55:26.537Z,13.30
2019-02-24T13:58:05.846Z,11.97
2019-02-24T14:00:46.061Z,12.63
2019-02-24T14:03:26.428Z,11.60
2019-02-24T14:06:09.772Z,10.85
2019-02-24T14:08:51.864Z,12.18
2019-02-24T14:11:32.463Z,11.40
2019-02-24T14:14:13.156Z,10.48
2019-02-24T14:16:56.443Z,10.08
2019-02-24T14:19:40.623Z,10.65
2019-02-24T14:22:43.242Z,10.72
2019-02-24T14:28:01.255Z,10.88
2019-02-24T14:33:44.979Z,11.03
2019-02-24T14:36:28.633Z,9.93
2019-02-24T14:39:11.870Z,10.38
2019-02-24T14:41:52.398Z,10.60
2019-02-24T14:44:34.638Z,10.20
2019-02-24T14:49:54.864Z,10.13
2019-02-24T14:52:46.318Z,10.08
2019-02-24T14:55:43.665Z,11.08
2019-02-24T14:58:38.397Z,9.55
2019-02-24T15:01:34.893Z,9.75
2019-02-24T15:04:31.886Z,10.88
2019-02-24T15:07:25.369Z,10.93
2019-02-24T15:10:05.677Z,10.35
2019-02-24T15:12:49.279Z,10.38
2019-02-24T15:15:37.606Z,10.10
2019-02-24T15:18:18.958Z,10.48
2019-02-24T15:21:00.318Z,10.70
2019-02-24T15:23:52.694Z,10.00
2019-02-24T15:26:38.402Z,10.30
2019-02-24T15:29:24.385Z,10.08
2019-02-24T15:32:07.060Z,10.03
2019-02-24T15:38:54.721Z,10.13
2019-02-24T15:41:44.102Z,10.58
2019-02-24T15:44:26.246Z,9.38
2019-02-24T15:47:17.588Z,10.03
2019-02-24T15:50:05.598Z,9.98
2019-02-24T15:52:49.820Z,9.88
2019-02-24T15:56:16.092Z,10.48
2019-02-24T15:59:08.026Z,10.63
2019-02-24T16:01:51.650Z,10.35
2019-02-24T16:04:38.911Z,9.60
2019-02-24T16:07:41.261Z,10.93
2019-02-24T16:10:39.582Z,9.70
2019-02-24T16:13:37.006Z,9.90
2019-02-24T16:16:31.502Z,9.20
2019-02-24T16:19:12.880Z,10.18
2019-02-24T16:22:16.412Z,10.23
2019-02-24T16:25:05.598Z,9.80
2019-02-24T16:27:47.488Z,9.70
2019-02-24T16:30:29.620Z,10.80
2019-02-24T16:33:11.061Z,11.05
2019-02-24T16:35:51.875Z,10.48
2019-02-24T16:38:32.637Z,10.25
2019-02-24T16:41:17.530Z,10.32
2019-02-24T16:44:07.539Z,11.63
2019-02-24T16:46:49.651Z,10.68
2019-02-24T16:49:32.424Z,11.12
2019-02-24T16:52:26.826Z,10.88
2019-02-24T16:55:09.518Z,12.28
2019-02-24T16:58:21.851Z,12.37
2019-02-24T17:01:19.304Z,11.90
2019-02-24T17:04:02.714Z,12.00
2019-02-24T17:06:48.932Z,12.58
2019-02-24T17:09:36.570Z,11.97
2019-02-24T17:12:21.129Z,11.25
2019-02-24T17:15:24.425Z,10.98
2019-02-24T17:18:07.081Z,11.43
2019-02-24T17:20:49.214Z,10.60
2019-02-24T17:23:29.505Z,10.88
2019-02-24T17:26:11.057Z,9.98
2019-02-24T17:28:51.769Z,10.90
2019-02-24T17:31:32.048Z,10.32
2019-02-24T17:34:11.242Z,10.48
2019-02-24T17:36:50.486Z,10.53
2019-02-24T17:39:32.179Z,16.10
2019-02-24T17:42:13.024Z,21.70
2019-02-24T17:44:53.749Z,12.45
2019-02-24T17:47:33.027Z,10.93
2019-02-24T17:50:15.690Z,10.72
2019-02-24T17:52:55.136Z,11.53
2019-02-24T17:55:37.231Z,10.90
2019-02-24T17:58:20.939Z,10.05
2019-02-24T18:01:05.390Z,10.35
2019-02-24T18:03:47.692Z,11.43
2019-02-24T18:09:17.185Z,10.63
2019-02-24T18:11:56.563Z,10.23
2019-02-24T18:14:36.085Z,10.65
2019-02-24T18:17:15.473Z,10.98
2019-02-24T18:19:58.771Z,10.80
2019-02-24T18:22:40.131Z,10.60
2019-02-24T18:25:23.661Z,11.55
2019-02-24T18:28:03.960Z,11.43
2019-02-24T18:30:43.174Z,12.30
2019-02-24T18:33:23.266Z,11.38
2019-02-24T18:36:02.474Z,11.15
2019-02-24T18:38:42.872Z,11.25
2019-02-24T18:41:24.027Z,10.30
2019-02-24T18:44:03.517Z,11.68
2019-02-24T18:46:42.785Z,10.58
2019-02-24T18:49:23.328Z,10.82
2019-02-24T18:52:05.266Z,10.68
2019-02-24T18:54:44.743Z,10.32
2019-02-24T18:57:24.052Z,11.18
2019-02-24T19:00:09.556Z,10.88
2019-02-24T19:02:54.791Z,10.00
2019-02-24T19:05:37.717Z,9.65
2019-02-24T19:08:18.295Z,10.60
2019-02-24T19:11:02.234Z,10.58
2019-02-24T19:13:47.787Z,10.05
2019-02-24T19:16:27.775Z,10.50
2019-02-24T19:19:07.290Z,9.93
2019-02-24T19:21:46.703Z,11.03
2019-02-24T19:24:27.545Z,10.63
2019-02-24T19:27:24.901Z,10.13
2019-02-24T19:30:04.229Z,9.50
2019-02-24T19:32:44.655Z,9.15
2019-02-24T19:35:25.099Z,9.95
2019-02-24T19:38:04.482Z,10.13
2019-02-24T19:40:43.480Z,9.50
2019-02-24T19:43:22.787Z,12.37
2019-02-24T19:46:07.432Z,13.50
2019-02-24T19:48:48.090Z,9.85
2019-02-24T19:51:29.875Z,10.45
2019-02-24T19:54:12.267Z,9.58
2019-02-24T19:56:52.491Z,10.90
2019-02-24T19:59:32.700Z,10.05
2019-02-24T20:02:17.529Z,10.70
2019-02-24T20:04:57.643Z,9.83
2019-02-24T20:07:39.926Z,10.18
2019-02-24T20:10:21.788Z,11.93
2019-02-24T20:13:01.059Z,15.63
2019-02-24T20:15:40.604Z,10.10
2019-02-24T20:18:20.322Z,10.13
2019-02-24T20:21:03.076Z,10.08
2019-02-24T20:23:42.626Z,10.35
2019-02-24T20:26:35.370Z,9.80
2019-02-24T20:29:14.923Z,10.10
2019-02-24T20:31:54.026Z,10.10
2019-02-24T20:34:33.371Z,10.45
2019-02-24T20:37:12.853Z,9.88
2019-02-24T20:39:52.342Z,10.53
2019-02-24T20:42:38.690Z,9.95
2019-02-24T20:45:20.073Z,13.18
2019-02-24T20:47:59.837Z,8.98
2019-02-24T20:50:40.515Z,9.25
2019-02-24T20:53:19.506Z,10.08
2019-02-24T20:56:00.527Z,10.63
2019-02-24T20:58:40.643Z,10.70
2019-02-24T21:01:20.082Z,9.73
2019-02-24T21:03:59.398Z,10.20
2019-02-24T21:06:42.603Z,10.55
2019-02-24T21:09:21.696Z,11.28
2019-02-24T21:12:02.144Z,11.80
2019-02-24T21:14:45.390Z,11.73
2019-02-24T21:17:24.836Z,11.70
2019-02-24T21:20:04.154Z,11.35
2019-02-24T21:22:44.587Z,11.25
2019-02-24T21:25:23.794Z,11.48
2019-02-24T21:28:02.906Z,11.93
2019-02-24T21:30:41.922Z,11.18
2019-02-24T21:33:20.981Z,11.03
2019-02-24T21:36:01.602Z,12.63
2019-02-24T21:38:43.611Z,12.63
2019-02-24T21:41:22.876Z,19.82
2019-02-24T21:44:02.323Z,19.52
2019-02-24T21:46:42.233Z,12.53
2019-02-24T21:49:21.307Z,13.03
2019-02-24T21:52:04.690Z,12.90
2019-02-24T21:54:44.631Z,12.40
2019-02-24T21:57:24.755Z,11.68
2019-02-24T22:00:04.125Z,10.80
2019-02-24T22:02:44.806Z,12.68
2019-02-24T22:05:25.435Z,11.93
2019-02-24T22:08:08.632Z,12.07
2019-02-24T22:10:47.938Z,11.80
2019-02-24T22:13:27.251Z,12.53
2019-02-24T22:16:07.239Z,14.05
2019-02-24T22:18:46.746Z,12.95
2019-02-24T22:21:25.684Z,13.75
2019-02-24T22:24:07.226Z,13.40
2019-02-24T22:26:46.967Z,13.45
2019-02-24T22:29:27.782Z,11.93
2019-02-24T22:32:08.887Z,11.83
2019-02-24T22:34:48.093Z,12.33
2019-02-24T22:37:31.259Z,12.95
2019-02-24T22:40:11.862Z,12.85
2019-02-24T22:42:53.852Z,12.68
2019-02-24T22:45:34.445Z,12.50
2019-02-24T22:48:15.387Z,12.73
2019-02-24T22:50:55.581Z,11.80
2019-02-24T22:53:34.643Z,11.53
2019-02-24T22:56:14.825Z,11.00
2019-02-24T22:58:54.285Z,11.00
2019-02-24T23:01:39.510Z,11.78
2019-02-24T23:04:19.549Z,11.35
2019-02-24T23:06:59.805Z,11.48
2019-02-24T23:09:40.135Z,11.88
2019-02-24T23:12:19.688Z,11.43
2019-02-24T23:15:00.514Z,11.38
2019-02-24T23:17:40.382Z,12.73
2019-02-24T23:20:19.970Z,12.20
2019-02-24T23:22:59.619Z,12.80
2019-02-24T23:25:39.392Z,13.48
2019-02-24T23:28:18.610Z,13.83
2019-02-24T23:31:00.151Z,14.53
2019-02-24T23:33:42.068Z,14.00
2019-02-24T23:36:21.498Z,11.65
2019-02-24T23:39:01.689Z,10.53
2019-02-24T23:41:42.979Z,11.95
2019-02-24T23:44:22.445Z,12.23
2019-02-24T23:47:01.510Z,12.30
2019-02-24T23:49:40.699Z,12.07
2019-02-24T23:52:20.174Z,12.55
2019-02-24T23:54:59.678Z,17.75
2019-02-24T23:57:42.831Z,14.00
